Terminal Aerodrome Forecast
Issued by NWS

Home | Current Version | Previous Version | Text Only | Print | Product List | Glossary On
Versions: 1 2 3 4 5 6 7 8 9 10 11 12 13 14
000
FTUS46 KMTR 302333
TAFSTS
TAF
KSTS 302333Z 3100/3124 17010KT P6SM SCT200
     FM310500 16005KT P6SM SCT200
     FM310700 VRB03KT P6SM OVC008
     FM311800 VRB03KT P6SM SCT015
     FM312100 18008KT P6SM SCT250=

USA.gov is the U.S. government's official web portal to all federal, state and local government web resources and services.